sensor_id;sensor_type;location;lat;lon;timestamp;pressure;altitude;pressure_sealevel;temperature;humidity
24031;BME280;12240;51.142;22.486;2022-08-21T09:57:59;98802.66;;;30.39;68.74
24031;BME280;12240;51.142;22.486;2022-08-21T10:00:35;98808.88;;;30.26;70.33
24031;BME280;12240;51.142;22.486;2022-08-21T10:03:14;98809.78;;;30.17;69.37
24031;BME280;12240;51.142;22.486;2022-08-21T10:06:19;98796.16;;;29.54;70.62
24031;BME280;12240;51.142;22.486;2022-08-21T10:08:49;98800.41;;;28.98;69.87
24031;BME280;12240;51.142;22.486;2022-08-21T10:11:17;98793.75;;;29.43;70.84
24031;BME280;12240;51.142;22.486;2022-08-21T10:20:12;98796.53;;;29.04;70.69
24031;BME280;12240;51.142;22.486;2022-08-21T10:35:26;98788.16;;;30.95;67.66
24031;BME280;12240;51.142;22.486;2022-08-21T10:43:57;98771.47;;;32.28;62.00
24031;BME280;12240;51.142;22.486;2022-08-21T10:55:40;98773.06;;;29.84;69.39
24031;BME280;12240;51.142;22.486;2022-08-21T10:58:25;98792.31;;;30.73;67.31
24031;BME280;12240;51.142;22.486;2022-08-21T11:03:51;98775.09;;;32.37;61.69
24031;BME280;12240;51.142;22.486;2022-08-21T11:06:27;98778.97;;;32.63;61.82
24031;BME280;12240;51.142;22.486;2022-08-21T11:09:12;98768.38;;;32.92;58.71
24031;BME280;12240;51.142;22.486;2022-08-21T11:12:03;98776.00;;;33.31;57.32
24031;BME280;12240;51.142;22.486;2022-08-21T11:15:18;98765.97;;;32.42;57.92
24031;BME280;12240;51.142;22.486;2022-08-21T11:18:32;98758.28;;;32.52;58.79
24031;BME280;12240;51.142;22.486;2022-08-21T11:30:13;98763.94;;;33.49;57.75
24031;BME280;12240;51.142;22.486;2022-08-21T11:33:09;98762.50;;;34.13;54.83
24031;BME280;12240;51.142;22.486;2022-08-21T11:35:54;98760.81;;;34.43;55.84
24031;BME280;12240;51.142;22.486;2022-08-21T11:38:41;98716.63;;;33.95;55.33
24031;BME280;12240;51.142;22.486;2022-08-21T11:41:29;98749.13;;;33.98;55.16
24031;BME280;12240;51.142;22.486;2022-08-21T11:47:03;98748.34;;;34.79;54.96
24031;BME280;12240;51.142;22.486;2022-08-21T11:50:18;98718.28;;;34.13;54.47
24031;BME280;12240;51.142;22.486;2022-08-21T11:53:09;98722.38;;;34.16;54.13
24031;BME280;12240;51.142;22.486;2022-08-21T11:56:01;98728.41;;;34.26;55.03
24031;BME280;12240;51.142;22.486;2022-08-21T11:58:31;98750.75;;;34.47;54.48
24031;BME280;12240;51.142;22.486;2022-08-21T12:01:30;98752.03;;;34.49;54.82
24031;BME280;12240;51.142;22.486;2022-08-21T12:04:28;98749.44;;;33.96;54.80
24031;BME280;12240;51.142;22.486;2022-08-21T12:07:14;98745.72;;;34.09;55.77
24031;BME280;12240;51.142;22.486;2022-08-21T12:09:56;98726.69;;;33.60;54.89
24031;BME280;12240;51.142;22.486;2022-08-21T12:12:35;98740.91;;;33.45;56.27
24031;BME280;12240;51.142;22.486;2022-08-21T12:18:28;98737.88;;;33.33;55.80
24031;BME280;12240;51.142;22.486;2022-08-21T12:27:12;98744.25;;;33.20;56.55
24031;BME280;12240;51.142;22.486;2022-08-21T12:29:51;98721.47;;;32.70;57.30
24031;BME280;12240;51.142;22.486;2022-08-21T12:32:30;98749.19;;;32.38;58.17
24031;BME280;12240;51.142;22.486;2022-08-21T12:41:20;98739.84;;;32.12;59.33
24031;BME280;12240;51.142;22.486;2022-08-21T12:44:04;98743.59;;;32.30;58.23
24031;BME280;12240;51.142;22.486;2022-08-21T12:46:42;98749.22;;;32.74;58.47
24031;BME280;12240;51.142;22.486;2022-08-21T12:52:07;98743.56;;;33.15;56.50
24031;BME280;12240;51.142;22.486;2022-08-21T12:54:42;98744.31;;;33.07;57.33
24031;BME280;12240;51.142;22.486;2022-08-21T12:57:25;98741.22;;;33.30;57.86
24031;BME280;12240;51.142;22.486;2022-08-21T13:00:04;98741.44;;;33.12;57.20
24031;BME280;12240;51.142;22.486;2022-08-21T13:02:49;98743.41;;;32.26;58.33
24031;BME280;12240;51.142;22.486;2022-08-21T13:05:36;98741.75;;;32.25;58.07
24031;BME280;12240;51.142;22.486;2022-08-21T13:08:11;98740.53;;;32.31;58.44
24031;BME280;12240;51.142;22.486;2022-08-21T13:10:41;98736.16;;;32.79;57.20
24031;BME280;12240;51.142;22.486;2022-08-21T13:13:23;98726.16;;;32.70;56.94
24031;BME280;12240;51.142;22.486;2022-08-21T13:16:05;98716.56;;;33.03;57.39
24031;BME280;12240;51.142;22.486;2022-08-21T13:18:57;98726.28;;;33.23;57.15
24031;BME280;12240;51.142;22.486;2022-08-21T13:21:39;98718.00;;;33.45;55.34
24031;BME280;12240;51.142;22.486;2022-08-21T13:24:26;98721.09;;;32.85;57.05
24031;BME280;12240;51.142;22.486;2022-08-21T13:27:27;98720.66;;;33.36;55.97
24031;BME280;12240;51.142;22.486;2022-08-21T13:32:45;98694.31;;;32.42;57.25
24031;BME280;12240;51.142;22.486;2022-08-21T13:35:19;98725.34;;;31.34;61.26
24031;BME280;12240;51.142;22.486;2022-08-21T13:37:49;98711.06;;;31.00;60.70
24031;BME280;12240;51.142;22.486;2022-08-21T13:40:32;98726.47;;;31.33;61.12
24031;BME280;12240;51.142;22.486;2022-08-21T13:43:21;98719.28;;;31.50;61.54
24031;BME280;12240;51.142;22.486;2022-08-21T13:45:53;98729.34;;;31.41;61.64
24031;BME280;12240;51.142;22.486;2022-08-21T13:48:25;98670.72;;;30.81;62.28
24031;BME280;12240;51.142;22.486;2022-08-21T13:50:56;98728.47;;;30.76;62.54
24031;BME280;12240;51.142;22.486;2022-08-21T13:56:08;98704.91;;;29.91;65.24
24031;BME280;12240;51.142;22.486;2022-08-21T13:58:46;98736.88;;;29.82;66.45
24031;BME280;12240;51.142;22.486;2022-08-21T14:01:39;98740.53;;;30.20;66.23
24031;BME280;12240;51.142;22.486;2022-08-21T14:04:25;98733.22;;;29.68;66.59
24031;BME280;12240;51.142;22.486;2022-08-21T14:06:54;98738.81;;;29.82;66.28
24031;BME280;12240;51.142;22.486;2022-08-21T14:09:41;98736.06;;;29.82;66.19
24031;BME280;12240;51.142;22.486;2022-08-21T14:12:47;98729.47;;;30.06;66.03
24031;BME280;12240;51.142;22.486;2022-08-21T14:15:23;98730.28;;;30.30;65.99
24031;BME280;12240;51.142;22.486;2022-08-21T14:17:52;98719.44;;;30.57;65.54
24031;BME280;12240;51.142;22.486;2022-08-21T14:20:34;98702.50;;;30.50;64.36
24031;BME280;12240;51.142;22.486;2022-08-21T14:23:03;98720.59;;;30.51;64.81
24031;BME280;12240;51.142;22.486;2022-08-21T14:25:43;98740.75;;;30.65;64.18
24031;BME280;12240;51.142;22.486;2022-08-21T14:28:27;98746.03;;;30.80;64.04
24031;BME280;12240;51.142;22.486;2022-08-21T14:30:56;98700.88;;;30.87;63.47
24031;BME280;12240;51.142;22.486;2022-08-21T14:33:32;98726.81;;;31.45;62.47
24031;BME280;12240;51.142;22.486;2022-08-21T14:36:00;98736.88;;;31.36;62.28
24031;BME280;12240;51.142;22.486;2022-08-21T14:38:30;98734.28;;;31.26;62.01
24031;BME280;12240;51.142;22.486;2022-08-21T14:41:26;98737.91;;;31.40;61.33
24031;BME280;12240;51.142;22.486;2022-08-21T14:43:57;98746.59;;;31.15;61.99
24031;BME280;12240;51.142;22.486;2022-08-21T14:46:37;98722.09;;;30.62;62.74
24031;BME280;12240;51.142;22.486;2022-08-21T14:49:24;98759.06;;;30.51;63.34
24031;BME280;12240;51.142;22.486;2022-08-21T14:51:56;98756.41;;;30.65;63.99
24031;BME280;12240;51.142;22.486;2022-08-21T14:54:30;98767.81;;;30.35;64.12
24031;BME280;12240;51.142;22.486;2022-08-21T14:57:08;98740.13;;;30.31;64.17
24031;BME280;12240;51.142;22.486;2022-08-21T14:59:39;98760.28;;;30.45;64.72
24031;BME280;12240;51.142;22.486;2022-08-21T15:02:08;98744.84;;;30.87;62.83
24031;BME280;12240;51.142;22.486;2022-08-21T15:04:37;98769.22;;;31.25;62.48
24031;BME280;12240;51.142;22.486;2022-08-21T15:07:05;98763.09;;;31.33;61.53
24031;BME280;12240;51.142;22.486;2022-08-21T15:09:33;98771.41;;;31.10;63.52
24031;BME280;12240;51.142;22.486;2022-08-21T15:12:03;98733.50;;;30.32;64.54
24031;BME280;12240;51.142;22.486;2022-08-21T15:14:35;98766.97;;;30.58;63.99
24031;BME280;12240;51.142;22.486;2022-08-21T15:17:06;98745.78;;;30.40;63.13
24031;BME280;12240;51.142;22.486;2022-08-21T15:19:35;98740.13;;;30.50;63.70
24031;BME280;12240;51.142;22.486;2022-08-21T15:22:04;98769.28;;;30.51;64.06
24031;BME280;12240;51.142;22.486;2022-08-21T15:24:42;98770.31;;;30.73;63.66
24031;BME280;12240;51.142;22.486;2022-08-21T15:27:11;98773.63;;;30.70;63.58
24031;BME280;12240;51.142;22.486;2022-08-21T15:29:43;98767.22;;;30.38;64.17
24031;BME280;12240;51.142;22.486;2022-08-21T15:32:27;98766.06;;;30.20;65.39
24031;BME280;12240;51.142;22.486;2022-08-21T15:34:57;98767.69;;;30.21;65.42
24031;BME280;12240;51.142;22.486;2022-08-21T15:37:26;98759.16;;;30.65;65.13
24031;BME280;12240;51.142;22.486;2022-08-21T15:39:54;98770.97;;;30.47;65.03
24031;BME280;12240;51.142;22.486;2022-08-21T15:42:23;98723.25;;;30.19;64.50
24031;BME280;12240;51.142;22.486;2022-08-21T15:44:54;98752.72;;;29.90;65.50
24031;BME280;12240;51.142;22.486;2022-08-21T15:47:36;98722.88;;;29.55;66.65
24031;BME280;12240;51.142;22.486;2022-08-21T15:50:08;98738.53;;;29.54;67.13
24031;BME280;12240;51.142;22.486;2022-08-21T15:52:37;98765.66;;;29.85;66.62
24031;BME280;12240;51.142;22.486;2022-08-21T15:55:07;98726.59;;;29.69;66.21
24031;BME280;12240;51.142;22.486;2022-08-21T15:57:37;98764.56;;;29.86;66.49
24031;BME280;12240;51.142;22.486;2022-08-21T16:00:15;98726.59;;;29.40;68.14
24031;BME280;12240;51.142;22.486;2022-08-21T16:02:49;98762.25;;;29.40;67.91
24031;BME280;12240;51.142;22.486;2022-08-21T16:05:21;98755.81;;;29.26;69.94
24031;BME280;12240;51.142;22.486;2022-08-21T16:07:50;98767.56;;;29.32;69.56
24031;BME280;12240;51.142;22.486;2022-08-21T16:10:23;98764.31;;;29.25;70.97
24031;BME280;12240;51.142;22.486;2022-08-21T16:13:02;98760.59;;;29.11;71.47
24031;BME280;12240;51.142;22.486;2022-08-21T16:15:31;98738.00;;;28.51;73.67
24031;BME280;12240;51.142;22.486;2022-08-21T16:17:59;98771.00;;;28.16;75.60
24031;BME280;12240;51.142;22.486;2022-08-21T16:20:29;98768.63;;;27.85;78.97
24031;BME280;12240;51.142;22.486;2022-08-21T16:22:58;98756.41;;;27.47;80.79
24031;BME280;12240;51.142;22.486;2022-08-21T16:25:27;98757.22;;;26.92;86.90
24031;BME280;12240;51.142;22.486;2022-08-21T16:27:59;98769.16;;;26.66;90.51
24031;BME280;12240;51.142;22.486;2022-08-21T16:30:29;98754.69;;;26.56;92.35
24031;BME280;12240;51.142;22.486;2022-08-21T16:33:00;98757.41;;;26.56;93.86
24031;BME280;12240;51.142;22.486;2022-08-21T16:35:30;98766.66;;;26.29;98.22
24031;BME280;12240;51.142;22.486;2022-08-21T16:37:59;98729.66;;;25.97;100.00
24031;BME280;12240;51.142;22.486;2022-08-21T16:40:28;98770.56;;;25.97;100.00
24031;BME280;12240;51.142;22.486;2022-08-21T16:42:56;98762.63;;;25.95;100.00
24031;BME280;12240;51.142;22.486;2022-08-21T16:45:25;98772.19;;;25.98;100.00
24031;BME280;12240;51.142;22.486;2022-08-21T16:48:00;98769.38;;;25.78;100.00
24031;BME280;12240;51.142;22.486;2022-08-21T16:50:31;98741.63;;;25.44;100.00
24031;BME280;12240;51.142;22.486;2022-08-21T16:52:59;98752.53;;;25.44;100.00
24031;BME280;12240;51.142;22.486;2022-08-21T16:55:28;98774.47;;;25.59;100.00
24031;BME280;12240;51.142;22.486;2022-08-21T16:57:56;98778.06;;;25.33;100.00
24031;BME280;12240;51.142;22.486;2022-08-21T17:00:25;98769.44;;;25.14;100.00
24031;BME280;12240;51.142;22.486;2022-08-21T17:02:55;98739.56;;;24.88;100.00
24031;BME280;12240;51.142;22.486;2022-08-21T17:05:26;98773.97;;;24.99;100.00
24031;BME280;12240;51.142;22.486;2022-08-21T17:07:54;98770.13;;;24.95;100.00
24031;BME280;12240;51.142;22.486;2022-08-21T17:10:23;98773.41;;;24.70;100.00
24031;BME280;12240;51.142;22.486;2022-08-21T17:12:56;98777.66;;;24.61;100.00
24031;BME280;12240;51.142;22.486;2022-08-21T17:15:35;98777.50;;;24.46;100.00
24031;BME280;12240;51.142;22.486;2022-08-21T17:18:06;98758.84;;;24.33;100.00
24031;BME280;12240;51.142;22.486;2022-08-21T17:20:38;98771.56;;;24.28;100.00
24031;BME280;12240;51.142;22.486;2022-08-21T17:23:09;98714.75;;;23.88;100.00
24031;BME280;12240;51.142;22.486;2022-08-21T17:25:40;98777.97;;;24.16;100.00
24031;BME280;12240;51.142;22.486;2022-08-21T17:28:24;98773.75;;;24.04;100.00
24031;BME280;12240;51.142;22.486;2022-08-21T17:30:56;98785.84;;;23.96;100.00
24031;BME280;12240;51.142;22.486;2022-08-21T17:33:26;98751.09;;;23.60;100.00
24031;BME280;12240;51.142;22.486;2022-08-21T17:35:56;98788.81;;;23.73;100.00
24031;BME280;12240;51.142;22.486;2022-08-21T17:38:24;98783.53;;;23.67;100.00
24031;BME280;12240;51.142;22.486;2022-08-21T17:40:54;98794.91;;;23.64;100.00
24031;BME280;12240;51.142;22.486;2022-08-21T17:43:23;98734.34;;;23.13;100.00
24031;BME280;12240;51.142;22.486;2022-08-21T17:45:52;98799.56;;;23.47;100.00
24031;BME280;12240;51.142;22.486;2022-08-21T17:48:21;98806.06;;;23.29;100.00
24031;BME280;12240;51.142;22.486;2022-08-21T17:50:52;98803.47;;;23.23;100.00
24031;BME280;12240;51.142;22.486;2022-08-21T17:53:20;98805.03;;;23.19;100.00
24031;BME280;12240;51.142;22.486;2022-08-21T17:55:49;98811.47;;;23.13;100.00
24031;BME280;12240;51.142;22.486;2022-08-21T17:58:18;98802.31;;;23.02;100.00
24031;BME280;12240;51.142;22.486;2022-08-21T18:00:48;98749.06;;;22.68;100.00
24031;BME280;12240;51.142;22.486;2022-08-21T18:03:20;98777.59;;;22.70;100.00
24031;BME280;12240;51.142;22.486;2022-08-21T18:05:53;98811.00;;;22.87;100.00
24031;BME280;12240;51.142;22.486;2022-08-21T18:08:24;98777.41;;;22.60;100.00
24031;BME280;12240;51.142;22.486;2022-08-21T18:10:52;98819.13;;;22.71;100.00
24031;BME280;12240;51.142;22.486;2022-08-21T18:13:34;98825.78;;;22.63;100.00
24031;BME280;12240;51.142;22.486;2022-08-21T18:16:05;98818.38;;;22.59;100.00
24031;BME280;12240;51.142;22.486;2022-08-21T18:18:41;98813.13;;;22.41;100.00
24031;BME280;12240;51.142;22.486;2022-08-21T18:21:10;98824.44;;;22.38;100.00
24031;BME280;12240;51.142;22.486;2022-08-21T18:23:38;98823.72;;;22.42;100.00
24031;BME280;12240;51.142;22.486;2022-08-21T18:26:25;98731.69;;;21.84;100.00
24031;BME280;12240;51.142;22.486;2022-08-21T18:28:57;98817.66;;;22.24;100.00
24031;BME280;12240;51.142;22.486;2022-08-21T18:31:29;98795.53;;;22.04;100.00
24031;BME280;12240;51.142;22.486;2022-08-21T18:34:13;98835.13;;;22.16;100.00
24031;BME280;12240;51.142;22.486;2022-08-21T18:36:51;98791.66;;;21.88;100.00
24031;BME280;12240;51.142;22.486;2022-08-21T18:39:20;98783.91;;;21.80;100.00
24031;BME280;12240;51.142;22.486;2022-08-21T18:42:10;98831.25;;;22.01;100.00
24031;BME280;12240;51.142;22.486;2022-08-21T18:44:42;98790.47;;;21.72;100.00
24031;BME280;12240;51.142;22.486;2022-08-21T18:47:26;98799.81;;;21.65;100.00
24031;BME280;12240;51.142;22.486;2022-08-21T18:49:56;98832.31;;;21.76;100.00
24031;BME280;12240;51.142;22.486;2022-08-21T18:52:24;98838.22;;;21.73;100.00
24031;BME280;12240;51.142;22.486;2022-08-21T18:55:15;98832.44;;;21.70;100.00
24031;BME280;12240;51.142;22.486;2022-08-21T18:57:48;98833.72;;;21.67;100.00
24031;BME280;12240;51.142;22.486;2022-08-21T19:00:30;98806.44;;;21.34;100.00
24031;BME280;12240;51.142;22.486;2022-08-21T19:03:00;98831.28;;;21.54;100.00
24031;BME280;12240;51.142;22.486;2022-08-21T19:05:33;98805.59;;;21.34;100.00
24031;BME280;12240;51.142;22.486;2022-08-21T19:08:03;98809.56;;;21.31;100.00
24031;BME280;12240;51.142;22.486;2022-08-21T19:10:31;98806.16;;;21.24;100.00
24031;BME280;12240;51.142;22.486;2022-08-21T19:13:01;98831.00;;;21.33;100.00
24031;BME280;12240;51.142;22.486;2022-08-21T19:15:36;98817.81;;;21.13;100.00
24031;BME280;12240;51.142;22.486;2022-08-21T19:18:11;98831.00;;;21.21;100.00
24031;BME280;12240;51.142;22.486;2022-08-21T19:20:43;98827.69;;;21.19;100.00
24031;BME280;12240;51.142;22.486;2022-08-21T19:23:15;98835.94;;;21.24;100.00
24031;BME280;12240;51.142;22.486;2022-08-21T19:25:47;98838.75;;;21.18;100.00
24031;BME280;12240;51.142;22.486;2022-08-21T19:28:31;98835.69;;;21.14;100.00
24031;BME280;12240;51.142;22.486;2022-08-21T19:31:17;98841.09;;;21.14;100.00
24031;BME280;12240;51.142;22.486;2022-08-21T19:34:08;98833.00;;;21.14;100.00
24031;BME280;12240;51.142;22.486;2022-08-21T19:36:39;98837.59;;;21.14;100.00
24031;BME280;12240;51.142;22.486;2022-08-21T19:39:10;98807.03;;;20.95;100.00
24031;BME280;12240;51.142;22.486;2022-08-21T19:41:46;98838.16;;;21.16;100.00
24031;BME280;12240;51.142;22.486;2022-08-21T19:44:21;98834.66;;;21.15;100.00
24031;BME280;12240;51.142;22.486;2022-08-21T19:46:52;98841.22;;;21.08;100.00
24031;BME280;12240;51.142;22.486;2022-08-21T19:49:31;98804.53;;;20.82;100.00
24031;BME280;12240;51.142;22.486;2022-08-21T19:52:01;98811.72;;;20.88;100.00
24031;BME280;12240;51.142;22.486;2022-08-21T19:54:40;98850.66;;;21.17;100.00
24031;BME280;12240;51.142;22.486;2022-08-21T19:57:09;98854.66;;;21.26;100.00
24031;BME280;12240;51.142;22.486;2022-08-21T19:59:40;98826.28;;;21.17;100.00
24031;BME280;12240;51.142;22.486;2022-08-21T20:02:12;98828.06;;;21.23;100.00
24031;BME280;12240;51.142;22.486;2022-08-21T20:04:41;98845.38;;;21.33;100.00
24031;BME280;12240;51.142;22.486;2022-08-21T20:07:20;98832.78;;;21.27;100.00
24031;BME280;12240;51.142;22.486;2022-08-21T20:09:54;98808.50;;;21.21;100.00
24031;BME280;12240;51.142;22.486;2022-08-21T20:12:23;98810.16;;;21.22;100.00
24031;BME280;12240;51.142;22.486;2022-08-21T20:14:52;98808.06;;;21.24;100.00
24031;BME280;12240;51.142;22.486;2022-08-21T20:17:21;98831.84;;;21.45;100.00
24031;BME280;12240;51.142;22.486;2022-08-21T20:19:52;98821.97;;;21.39;100.00
24031;BME280;12240;51.142;22.486;2022-08-21T20:22:40;98833.97;;;21.43;100.00
24031;BME280;12240;51.142;22.486;2022-08-21T20:25:09;98821.84;;;21.45;100.00
24031;BME280;12240;51.142;22.486;2022-08-21T20:27:37;98820.06;;;21.51;100.00
24031;BME280;12240;51.142;22.486;2022-08-21T20:30:08;98794.53;;;21.35;100.00
24031;BME280;12240;51.142;22.486;2022-08-21T20:32:37;98718.41;;;20.91;100.00
24031;BME280;12240;51.142;22.486;2022-08-21T20:35:10;98732.44;;;20.88;100.00
24031;BME280;12240;51.142;22.486;2022-08-21T20:37:58;98836.09;;;21.52;100.00
24031;BME280;12240;51.142;22.486;2022-08-21T20:40:26;98829.59;;;21.53;100.00
24031;BME280;12240;51.142;22.486;2022-08-21T20:43:00;98828.44;;;21.49;100.00
24031;BME280;12240;51.142;22.486;2022-08-21T20:45:32;98809.81;;;21.41;100.00
24031;BME280;12240;51.142;22.486;2022-08-21T20:51:12;98793.31;;;21.20;100.00
24031;BME280;12240;51.142;22.486;2022-08-21T20:59:48;98823.34;;;21.41;100.00
24031;BME280;12240;51.142;22.486;2022-08-21T21:02:51;98829.38;;;21.43;100.00
24031;BME280;12240;51.142;22.486;2022-08-21T21:08:19;98824.91;;;21.37;100.00
24031;BME280;12240;51.142;22.486;2022-08-21T21:11:16;98833.63;;;21.39;100.00
24031;BME280;12240;51.142;22.486;2022-08-21T21:13:52;98822.06;;;21.32;100.00
24031;BME280;12240;51.142;22.486;2022-08-21T21:16:29;98832.44;;;21.35;100.00
24031;BME280;12240;51.142;22.486;2022-08-21T21:19:07;98816.06;;;21.30;100.00
24031;BME280;12240;51.142;22.486;2022-08-21T21:21:53;98825.38;;;21.34;100.00
24031;BME280;12240;51.142;22.486;2022-08-21T21:24:54;98796.63;;;21.10;100.00
24031;BME280;12240;51.142;22.486;2022-08-21T21:27:32;98837.25;;;21.22;100.00
24031;BME280;12240;51.142;22.486;2022-08-21T21:32:54;98825.22;;;21.18;100.00
24031;BME280;12240;51.142;22.486;2022-08-21T21:42:10;98822.03;;;21.21;100.00
24031;BME280;12240;51.142;22.486;2022-08-21T21:45:22;98795.91;;;21.03;100.00
24031;BME280;12240;51.142;22.486;2022-08-21T21:48:25;98823.47;;;21.23;100.00
24031;BME280;12240;51.142;22.486;2022-08-21T21:51:01;98825.59;;;21.21;100.00
24031;BME280;12240;51.142;22.486;2022-08-21T21:59:48;98836.75;;;21.13;100.00
24031;BME280;12240;51.142;22.486;2022-08-21T22:02:37;98834.19;;;21.18;100.00
24031;BME280;12240;51.142;22.486;2022-08-21T22:11:21;98732.59;;;20.51;100.00
24031;BME280;12240;51.142;22.486;2022-08-21T22:14:07;98833.00;;;21.14;100.00
24031;BME280;12240;51.142;22.486;2022-08-21T22:16:37;98788.66;;;20.85;100.00
24031;BME280;12240;51.142;22.486;2022-08-21T22:19:18;98824.75;;;21.09;100.00
24031;BME280;12240;51.142;22.486;2022-08-21T22:22:08;98823.34;;;21.07;100.00
24031;BME280;12240;51.142;22.486;2022-08-21T22:24:44;98819.44;;;21.03;100.00
24031;BME280;12240;51.142;22.486;2022-08-21T22:27:21;98803.91;;;20.98;100.00
24031;BME280;12240;51.142;22.486;2022-08-21T22:29:58;98785.72;;;20.87;100.00
24031;BME280;12240;51.142;22.486;2022-08-21T22:32:41;98823.34;;;21.07;100.00
24031;BME280;12240;51.142;22.486;2022-08-21T22:35:19;98810.47;;;21.02;100.00
24031;BME280;12240;51.142;22.486;2022-08-21T22:37:58;98788.28;;;20.82;100.00
24031;BME280;12240;51.142;22.486;2022-08-21T22:40:31;98824.75;;;21.09;100.00
24031;BME280;12240;51.142;22.486;2022-08-21T22:43:07;98827.78;;;21.01;100.00
24031;BME280;12240;51.142;22.486;2022-08-21T22:48:33;98824.94;;;20.96;100.00
24031;BME280;12240;51.142;22.486;2022-08-21T22:51:14;98823.84;;;20.97;100.00
24031;BME280;12240;51.142;22.486;2022-08-21T22:53:56;98820.94;;;20.99;100.00
24031;BME280;12240;51.142;22.486;2022-08-21T22:56:40;98780.53;;;20.74;100.00
24031;BME280;12240;51.142;22.486;2022-08-21T22:59:27;98812.19;;;20.85;100.00
24031;BME280;12240;51.142;22.486;2022-08-21T23:04:31;98783.22;;;20.74;100.00
24031;BME280;12240;51.142;22.486;2022-08-21T23:07:02;98823.84;;;20.85;100.00
24031;BME280;12240;51.142;22.486;2022-08-21T23:09:44;98824.44;;;20.88;100.00
24031;BME280;12240;51.142;22.486;2022-08-21T23:12:35;98799.16;;;20.64;100.00
24031;BME280;12240;51.142;22.486;2022-08-21T23:15:11;98835.50;;;20.86;100.00
24031;BME280;12240;51.142;22.486;2022-08-21T23:18:27;98838.28;;;20.79;100.00
24031;BME280;12240;51.142;22.486;2022-08-21T23:30:18;98826.66;;;20.79;100.00
24031;BME280;12240;51.142;22.486;2022-08-21T23:33:12;98837.47;;;20.79;100.00
24031;BME280;12240;51.142;22.486;2022-08-21T23:42:34;98803.34;;;20.48;100.00
24031;BME280;12240;51.142;22.486;2022-08-21T23:45:45;98842.03;;;20.67;100.00
24031;BME280;12240;51.142;22.486;2022-08-21T23:56:57;98828.84;;;20.70;100.00
